Time;durP1;ratioP1;P1;durP2;ratioP2;P2;SDS_P1;SDS_P2;PMS_P1;PMS_P2;Temp;Humidity;BMP_temperature;BMP_pressure;BME280_temperature;BME280_humidity;BME280_pressure;Samples;Min_cycle;Max_cycle;Signal;HPM_P1;HPM_P2
2021/12/10 00:00:22;;;;;;;;;;;;;;;19.34;47.25;98624.59;2107349;28;19919;-62
2021/12/10 00:01:26;;;;;;;;;;;;;;;19.34;47.37;98624.59;2106583;28;19998;-63
2021/12/10 00:02:33;;;;;;;;;;;;;;;19.32;47.32;98625.81;2105859;28;20436;-62
2021/12/10 00:03:39;;;;;;;;;;;;;;;19.31;47.46;98619.50;2107163;28;19920;-63
2021/12/10 00:04:40;;;;;;;;;;;;;;;19.31;47.37;98618.66;2107453;28;19955;-63
2021/12/10 00:05:44;;;;;;;;;;;;;;;19.31;47.45;98618.66;2107536;28;19912;-62
2021/12/10 00:06:47;;;;;;;;;;;;;;;19.30;47.39;98616.94;2107277;28;19915;-62
2021/12/10 00:07:48;;;;;;;;;;;;;;;19.29;47.48;98613.38;2107424;28;19916;-63
2021/12/10 00:08:51;;;;;;;;;;;;;;;19.26;47.43;98609.13;2107232;28;19912;-63
2021/12/10 00:09:53;;;;;;;;;;;;;;;19.25;47.42;98604.69;2107138;28;19912;-63
2021/12/10 00:10:56;;;;;;;;;;;;;;;19.24;47.52;98600.28;2107406;28;19931;-63
2021/12/10 00:12:00;;;;;;;;;;;;;;;19.23;47.45;98601.31;2107228;28;19994;-63
2021/12/10 00:13:01;;;;;;;;;;;;;;;19.24;47.49;98603.00;2106527;28;19912;-62
2021/12/10 00:14:02;;;;;;;;;;;;;;;19.22;47.53;98598.78;2106825;28;19962;-62
2021/12/10 00:15:03;;;;;;;;;;;;;;;19.22;47.63;98599.63;2098183;28;19912;-63
2021/12/10 00:16:04;;;;;;;;;;;;;;;19.22;47.51;98598.78;2098631;28;19916;-62
2021/12/10 00:17:06;;;;;;;;;;;;;;;19.21;47.52;98597.94;2107165;28;20370;-62
2021/12/10 00:18:08;;;;;;;;;;;;;;;19.20;47.68;98598.94;2107169;28;19934;-62
2021/12/10 00:19:28;;;;;;;;;;;;;;;19.20;47.60;98587.19;2107318;28;19918;-64
2021/12/10 00:20:32;;;;;;;;;;;;;;;19.19;47.61;98585.50;2107115;28;19912;-62
2021/12/10 00:21:32;;;;;;;;;;;;;;;19.18;47.62;98581.03;2107249;28;19955;-63
2021/12/10 00:22:40;;;;;;;;;;;;;;;19.17;47.67;98577.47;2107367;28;19912;-62
2021/12/10 00:23:45;;;;;;;;;;;;;;;19.17;47.67;98573.91;2107232;28;19912;-62
2021/12/10 00:24:47;;;;;;;;;;;;;;;19.16;47.70;98573.06;2107563;28;19912;-63
2021/12/10 00:25:50;;;;;;;;;;;;;;;19.16;47.76;98572.22;2107249;28;19916;-63
2021/12/10 00:26:50;;;;;;;;;;;;;;;19.15;47.68;98567.78;2107227;28;19919;-63
2021/12/10 00:27:53;;;;;;;;;;;;;;;19.14;47.79;98558.72;2107330;28;19951;-63
2021/12/10 00:29:01;;;;;;;;;;;;;;;19.14;47.75;98557.91;2107157;28;19919;-63
2021/12/10 00:30:14;;;;;;;;;;;;;;;19.13;47.76;98546.09;2107101;28;19992;-63
2021/12/10 00:32:40;;;;;;;;;;;;;;;19.12;47.81;98547.16;2107115;28;19912;-63
2021/12/10 00:33:43;;;;;;;;;;;;;;;19.12;47.71;98555.34;2107304;28;19961;-63
2021/12/10 00:34:50;;;;;;;;;;;;;;;19.13;47.73;98545.25;2107190;28;19916;-63
2021/12/10 00:35:51;;;;;;;;;;;;;;;19.12;47.77;98544.41;2107069;28;19916;-62
2021/12/10 00:36:53;;;;;;;;;;;;;;;19.11;47.84;98537.28;2107176;28;19919;-63
2021/12/10 00:37:53;;;;;;;;;;;;;;;19.10;47.89;98541.00;2107211;28;20392;-63
2021/12/10 00:38:55;;;;;;;;;;;;;;;19.11;47.79;98537.28;2107315;28;19912;-63
2021/12/10 00:39:57;;;;;;;;;;;;;;;19.10;47.80;98532.81;2107169;28;19913;-63
2021/12/10 00:40:58;;;;;;;;;;;;;;;19.09;47.82;98533.88;2106909;28;19912;-62
2021/12/10 00:42:00;;;;;;;;;;;;;;;19.10;47.84;98534.72;2106616;28;19912;-62
2021/12/10 00:43:01;;;;;;;;;;;;;;;19.09;47.94;98533.03;2107264;28;19919;-63
2021/12/10 00:44:02;;;;;;;;;;;;;;;19.08;47.83;98532.16;2107166;28;19912;-62
2021/12/10 00:45:05;;;;;;;;;;;;;;;19.07;47.90;98519.56;2107036;28;19947;-63
2021/12/10 00:46:05;;;;;;;;;;;;;;;19.06;47.90;98517.88;2107101;28;20370;-63
2021/12/10 00:47:06;;;;;;;;;;;;;;;19.05;47.83;98508.81;2107284;28;20298;-62
2021/12/10 00:48:06;;;;;;;;;;;;;;;19.06;47.91;98515.13;2107011;28;19912;-63
2021/12/10 00:49:08;;;;;;;;;;;;;;;19.05;47.87;98514.25;2107091;28;19912;-63
2021/12/10 00:50:10;;;;;;;;;;;;;;;19.06;47.92;98517.88;2107224;28;19912;-63
2021/12/10 00:51:12;;;;;;;;;;;;;;;19.06;47.91;98517.88;2107140;28;19931;-63
2021/12/10 00:52:13;;;;;;;;;;;;;;;19.05;47.91;98516.16;2107112;28;19912;-62
2021/12/10 00:53:14;;;;;;;;;;;;;;;19.06;47.96;98529.63;2107356;28;19966;-63
2021/12/10 00:54:15;;;;;;;;;;;;;;;19.05;47.90;98527.06;2106394;28;19912;-63
2021/12/10 00:55:16;;;;;;;;;;;;;;;19.05;47.93;98532.53;2106618;28;19913;-62
2021/12/10 00:56:16;;;;;;;;;;;;;;;19.05;47.87;98536.13;2107298;28;19947;-63
2021/12/10 00:57:17;;;;;;;;;;;;;;;19.04;47.89;98517.19;2107103;28;19912;-63
2021/12/10 00:58:18;;;;;;;;;;;;;;;19.03;47.98;98523.69;2107090;28;19938;-62
2021/12/10 00:59:20;;;;;;;;;;;;;;;19.04;47.92;98536.31;2107211;28;19957;-63
2021/12/10 01:00:23;;;;;;;;;;;;;;;19.03;47.98;98537.34;2107007;28;19919;-62
2021/12/10 01:01:25;;;;;;;;;;;;;;;19.03;48.05;98540.06;2107226;28;19919;-63
2021/12/10 01:02:26;;;;;;;;;;;;;;;19.02;47.98;98527.47;2107014;28;19919;-63
2021/12/10 01:03:28;;;;;;;;;;;;;;;19.02;48.07;98528.31;2106909;28;19935;-62
2021/12/10 01:04:31;;;;;;;;;;;;;;;19.01;48.07;98517.56;2097926;28;20418;-63
2021/12/10 01:05:32;;;;;;;;;;;;;;;19.03;48.03;98512.75;2098654;28;19912;-63
2021/12/10 01:06:33;;;;;;;;;;;;;;;19.02;48.04;98511.06;2107061;28;19962;-62
2021/12/10 01:07:34;;;;;;;;;;;;;;;19.00;48.00;98508.53;2107323;28;19923;-63
2021/12/10 01:08:36;;;;;;;;;;;;;;;19.02;48.16;98508.34;2106960;28;19922;-64
2021/12/10 01:09:38;;;;;;;;;;;;;;;19.01;48.18;98503.91;2107115;28;19912;-63
2021/12/10 01:10:44;;;;;;;;;;;;;;;19.01;48.05;98495.72;2107028;28;19919;-63
2021/12/10 01:11:50;;;;;;;;;;;;;;;19.01;48.09;98498.44;2107015;28;19920;-63
2021/12/10 01:12:52;;;;;;;;;;;;;;;19.00;48.22;98507.69;2107306;28;19919;-63
2021/12/10 01:13:56;;;;;;;;;;;;;;;18.99;48.13;98516.91;2107757;28;19916;-64
2021/12/10 01:15:47;;;;;;;;;;;;;;;19.01;48.07;98523.00;2108775;28;20053;-63
2021/12/10 01:24:53;;;;;;;;;;;;;;;18.97;48.19;98495.25;2108753;28;19912;-62
2021/12/10 01:26:22;;;;;;;;;;;;;;;18.99;48.22;98500.53;2108466;28;19912;-62
2021/12/10 01:27:31;;;;;;;;;;;;;;;18.98;48.15;98487.91;2108652;28;19912;-63
2021/12/10 01:28:32;;;;;;;;;;;;;;;18.98;48.31;98475.09;2099613;28;19919;-63
2021/12/10 01:29:41;;;;;;;;;;;;;;;18.98;48.28;98472.34;2100651;28;19912;-62
2021/12/10 01:30:42;;;;;;;;;;;;;;;18.98;48.26;98461.44;2108224;28;19919;-63
2021/12/10 01:31:43;;;;;;;;;;;;;;;18.99;48.22;98452.22;2108437;28;19911;-62
2021/12/10 01:32:46;;;;;;;;;;;;;;;18.99;48.25;98456.84;2108657;28;19916;-63
2021/12/10 01:33:48;;;;;;;;;;;;;;;18.99;48.18;98454.97;2099513;28;19945;-63
2021/12/10 01:34:49;;;;;;;;;;;;;;;19.00;48.15;98461.25;2099773;28;20375;-63
2021/12/10 01:35:54;;;;;;;;;;;;;;;19.02;48.14;98456.47;2108414;28;20324;-63
2021/12/10 01:36:54;;;;;;;;;;;;;;;19.02;48.16;98457.31;2108415;28;20045;-63
2021/12/10 01:37:55;;;;;;;;;;;;;;;19.04;48.14;98465.31;2108600;28;19916;-63
2021/12/10 01:38:56;;;;;;;;;;;;;;;19.06;48.11;98469.56;2108359;28;19918;-62
2021/12/10 01:39:56;;;;;;;;;;;;;;;19.09;48.07;98470.22;2108483;28;19912;-63
2021/12/10 01:40:59;;;;;;;;;;;;;;;19.11;47.94;98466.25;2108316;28;19918;-63
2021/12/10 01:42:13;;;;;;;;;;;;;;;19.12;48.08;98467.94;2099321;28;19964;-63
2021/12/10 01:43:22;;;;;;;;;;;;;;;19.14;47.90;98460.41;2101606;28;19951;-65
2021/12/10 01:44:29;;;;;;;;;;;;;;;19.15;47.89;98453.91;2108315;28;19912;-63
2021/12/10 01:45:32;;;;;;;;;;;;;;;19.17;47.79;98449.09;2108500;28;20431;-63
2021/12/10 01:46:38;;;;;;;;;;;;;;;19.17;47.72;98443.63;2108322;28;19911;-63
2021/12/10 01:47:38;;;;;;;;;;;;;;;19.17;47.72;98440.91;2099203;28;19917;-63
2021/12/10 01:48:46;;;;;;;;;;;;;;;19.20;47.77;98437.78;2100258;28;19983;-62
2021/12/10 01:49:47;;;;;;;;;;;;;;;19.23;47.69;98442.00;2108453;28;19916;-62
2021/12/10 01:50:48;;;;;;;;;;;;;;;19.24;47.69;98441.84;2108155;28;20378;-63
2021/12/10 01:51:48;;;;;;;;;;;;;;;19.26;47.63;98433.47;2108266;28;20397;-63
2021/12/10 01:52:51;;;;;;;;;;;;;;;19.27;47.51;98429.69;2108407;28;20329;-63
2021/12/10 01:53:53;;;;;;;;;;;;;;;19.30;47.47;98439.38;2108385;28;19974;-63
2021/12/10 01:54:55;;;;;;;;;;;;;;;19.32;47.61;98440.03;2107563;28;19915;-63
2021/12/10 01:55:58;;;;;;;;;;;;;;;19.34;47.47;98448.91;2107434;28;19959;-63
2021/12/10 01:56:59;;;;;;;;;;;;;;;19.34;47.42;98443.44;2099556;28;19912;-63
2021/12/10 01:58:00;;;;;;;;;;;;;;;19.34;47.35;98443.44;2108461;28;19920;-63
2021/12/10 01:59:01;;;;;;;;;;;;;;;19.36;47.41;98446.81;2107599;28;19998;-63
2021/12/10 02:00:04;;;;;;;;;;;;;;;19.37;47.43;98449.34;2107764;28;19912;-64
2021/12/10 02:01:06;;;;;;;;;;;;;;;19.37;47.42;98443.88;2108435;28;19923;-63
2021/12/10 02:02:09;;;;;;;;;;;;;;;19.36;47.45;98444.09;2108186;28;20374;-63
2021/12/10 02:03:10;;;;;;;;;;;;;;;19.37;47.57;98432.94;2108089;28;19926;-63
2021/12/10 02:04:12;;;;;;;;;;;;;;;19.36;47.44;98427.69;2108147;28;19912;-63
2021/12/10 02:05:12;;;;;;;;;;;;;;;19.37;47.44;98418.44;2108320;28;19912;-63
2021/12/10 02:06:14;;;;;;;;;;;;;;;19.38;47.38;98410.06;2108146;28;20278;-63
2021/12/10 02:07:16;;;;;;;;;;;;;;;19.37;47.36;98399.31;2108153;28;19998;-63
2021/12/10 02:08:17;;;;;;;;;;;;;;;19.36;47.37;98392.19;2108055;28;19994;-63
2021/12/10 02:09:17;;;;;;;;;;;;;;;19.36;47.43;98392.19;2108345;28;19916;-63
2021/12/10 02:10:19;;;;;;;;;;;;;;;19.38;47.47;98395.56;2108202;28;19920;-63
2021/12/10 02:11:19;;;;;;;;;;;;;;;19.38;47.47;98390.94;2108159;28;20385;-63
2021/12/10 02:12:20;;;;;;;;;;;;;;;19.39;47.37;98389.06;2108361;28;20267;-63
2021/12/10 02:13:20;;;;;;;;;;;;;;;19.41;47.41;98389.72;2108259;28;19973;-63
2021/12/10 02:14:21;;;;;;;;;;;;;;;19.42;47.44;98380.47;2108085;28;20017;-63
2021/12/10 02:15:26;;;;;;;;;;;;;;;19.41;47.29;98370.59;2108106;28;19956;-63
2021/12/10 02:16:26;;;;;;;;;;;;;;;19.40;47.33;98367.00;2108067;28;19912;-63
2021/12/10 02:17:34;;;;;;;;;;;;;;;19.41;47.37;98371.41;2099115;28;19980;-63
2021/12/10 02:18:35;;;;;;;;;;;;;;;19.43;47.42;98365.78;2100255;28;19912;-63
2021/12/10 02:19:36;;;;;;;;;;;;;;;19.42;47.28;98364.06;2108198;28;19912;-63
2021/12/10 02:20:55;;;;;;;;;;;;;;;19.42;47.34;98359.44;2108045;28;19912;-63
2021/12/10 02:21:57;;;;;;;;;;;;;;;19.41;47.28;98351.47;2108068;28;20287;-63
2021/12/10 02:22:58;;;;;;;;;;;;;;;19.42;47.30;98348.50;2107998;28;19912;-63
2021/12/10 02:24:00;;;;;;;;;;;;;;;19.41;47.31;98341.38;2108251;28;20080;-63
2021/12/10 02:25:01;;;;;;;;;;;;;;;19.42;47.37;98339.47;2107619;28;19912;-63
2021/12/10 02:26:02;;;;;;;;;;;;;;;19.42;47.30;98336.75;2107465;28;19923;-63
2021/12/10 02:27:05;;;;;;;;;;;;;;;19.43;47.44;98338.44;2107962;28;19912;-63
2021/12/10 02:28:07;;;;;;;;;;;;;;;19.44;47.33;98340.13;2108227;28;19912;-63
2021/12/10 02:29:08;;;;;;;;;;;;;;;19.44;47.27;98348.31;2107969;28;19912;-63
2021/12/10 02:30:10;;;;;;;;;;;;;;;19.43;47.39;98349.38;2108206;28;19955;-63
2021/12/10 02:31:12;;;;;;;;;;;;;;;19.43;47.44;98336.56;2108074;28;19916;-63
2021/12/10 02:32:12;;;;;;;;;;;;;;;19.45;47.42;98336.34;2107955;28;19912;-63
2021/12/10 02:33:13;;;;;;;;;;;;;;;19.43;47.37;98338.44;2108006;28;20358;-63
2021/12/10 02:34:14;;;;;;;;;;;;;;;19.43;47.33;98333.00;2098943;28;20311;-63
2021/12/10 02:35:15;;;;;;;;;;;;;;;19.43;47.31;98335.72;2098996;28;19916;-63
2021/12/10 02:36:15;;;;;;;;;;;;;;;19.42;47.40;98332.13;2108025;28;20397;-63
2021/12/10 02:37:16;;;;;;;;;;;;;;;19.42;47.40;98325.81;2107948;28;20287;-63
2021/12/10 02:38:18;;;;;;;;;;;;;;;19.43;47.37;98328.38;2107167;28;19912;-63
2021/12/10 02:39:21;;;;;;;;;;;;;;;19.41;47.47;98333.16;2107344;28;20375;-63
2021/12/10 02:40:22;;;;;;;;;;;;;;;19.43;47.38;98338.44;2107850;28;19912;-63
2021/12/10 02:41:26;;;;;;;;;;;;;;;19.42;47.40;98334.00;2108289;28;19912;-62
2021/12/10 02:42:26;;;;;;;;;;;;;;;19.43;47.42;98343.91;2107833;28;19912;-63
2021/12/10 02:43:26;;;;;;;;;;;;;;;19.43;47.37;98338.44;2107207;28;19959;-63
2021/12/10 02:44:28;;;;;;;;;;;;;;;19.43;47.37;98322.06;2107298;28;20010;-63
2021/12/10 02:45:29;;;;;;;;;;;;;;;19.42;47.40;98320.34;2107873;28;19916;-63
2021/12/10 02:46:30;;;;;;;;;;;;;;;19.41;47.51;98311.31;2107872;28;20277;-63
2021/12/10 02:47:30;;;;;;;;;;;;;;;19.40;47.55;98314.22;2107803;28;19944;-63
2021/12/10 02:48:31;;;;;;;;;;;;;;;19.41;47.49;98307.75;2107841;28;19959;-62
2021/12/10 02:49:32;;;;;;;;;;;;;;;19.40;47.42;98289.63;2107889;28;19965;-63
2021/12/10 02:50:33;;;;;;;;;;;;;;;19.41;47.48;98291.34;2098960;28;20363;-63
2021/12/10 02:51:35;;;;;;;;;;;;;;;19.41;47.44;98291.34;2098812;28;19928;-63
2021/12/10 02:52:36;;;;;;;;;;;;;;;19.42;47.46;98298.50;2107770;28;19912;-63
2021/12/10 02:53:42;;;;;;;;;;;;;;;19.41;47.47;98307.75;2107715;28;19912;-63
2021/12/10 02:54:44;;;;;;;;;;;;;;;19.40;47.50;98300.56;2107764;28;19912;-63
2021/12/10 02:55:44;;;;;;;;;;;;;;;19.40;47.48;98286.91;2107831;28;19959;-63
2021/12/10 02:56:45;;;;;;;;;;;;;;;19.40;47.61;98292.38;2107824;28;19919;-63
2021/12/10 02:57:50;;;;;;;;;;;;;;;19.42;47.44;98303.94;2107371;28;20077;-63
2021/12/10 02:58:53;;;;;;;;;;;;;;;19.40;47.42;98295.09;2107718;28;19935;-63
2021/12/10 02:59:54;;;;;;;;;;;;;;;19.41;47.46;98291.34;2107825;28;19920;-63
2021/12/10 03:00:56;;;;;;;;;;;;;;;19.40;47.45;98297.84;2106997;28;19958;-63
2021/12/10 03:01:59;;;;;;;;;;;;;;;19.40;47.52;98300.56;2107127;28;19912;-63
2021/12/10 03:02:59;;;;;;;;;;;;;;;19.40;47.48;98311.50;2107677;28;20278;-63
2021/12/10 03:04:00;;;;;;;;;;;;;;;19.38;47.58;98300.78;2107479;28;19920;-63
2021/12/10 03:05:00;;;;;;;;;;;;;;;19.37;47.54;98295.50;2107575;28;19916;-63
2021/12/10 03:06:01;;;;;;;;;;;;;;;19.38;47.56;98281.66;2107702;28;20290;-63
2021/12/10 03:07:07;;;;;;;;;;;;;;;19.39;47.56;98277.03;2107648;28;19957;-63
2021/12/10 03:08:07;;;;;;;;;;;;;;;19.38;47.55;98286.28;2107955;28;19957;-63
2021/12/10 03:09:07;;;;;;;;;;;;;;;19.39;47.56;98282.50;2107655;28;19916;-63
2021/12/10 03:10:10;;;;;;;;;;;;;;;19.41;47.60;98272.22;2107682;28;19912;-63
2021/12/10 03:11:11;;;;;;;;;;;;;;;19.38;47.55;98273.47;2107714;28;19916;-63
2021/12/10 03:12:13;;;;;;;;;;;;;;;19.38;47.59;98258.97;2107652;28;19913;-63
2021/12/10 03:13:13;;;;;;;;;;;;;;;19.38;47.57;98258.97;2107716;28;19936;-63
2021/12/10 03:14:16;;;;;;;;;;;;;;;19.38;47.50;98264.44;2107730;28;19951;-63
2021/12/10 03:15:18;;;;;;;;;;;;;;;19.37;47.51;98263.56;2107583;28;20283;-63
2021/12/10 03:16:19;;;;;;;;;;;;;;;19.36;47.65;98261.88;2107721;28;19939;-63
2021/12/10 03:17:22;;;;;;;;;;;;;;;19.36;47.64;98267.34;2107698;28;19919;-63
2021/12/10 03:18:22;;;;;;;;;;;;;;;19.35;47.61;98267.53;2107660;28;19920;-63
2021/12/10 03:19:23;;;;;;;;;;;;;;;19.35;47.65;98262.06;2107569;28;19912;-63
2021/12/10 03:20:25;;;;;;;;;;;;;;;19.35;47.59;98251.13;2107743;28;19922;-63
2021/12/10 03:21:25;;;;;;;;;;;;;;;19.36;47.58;98242.75;2107510;28;20302;-63
2021/12/10 03:22:26;;;;;;;;;;;;;;;19.37;47.70;98246.31;2107557;28;19912;-63
2021/12/10 03:23:27;;;;;;;;;;;;;;;19.36;47.55;98259.16;2107548;28;19912;-63
2021/12/10 03:24:28;;;;;;;;;;;;;;;19.36;47.67;98277.44;2107514;28;19912;-63
2021/12/10 03:25:28;;;;;;;;;;;;;;;19.36;47.61;98272.81;2107565;28;19912;-63
2021/12/10 03:26:29;;;;;;;;;;;;;;;19.34;47.81;98258.50;2107428;28;19916;-63
2021/12/10 03:27:29;;;;;;;;;;;;;;;19.34;47.65;98235.78;2107572;28;19947;-63
2021/12/10 03:28:29;;;;;;;;;;;;;;;19.33;47.71;98234.97;2107835;28;20008;-63
2021/12/10 03:29:31;;;;;;;;;;;;;;;19.32;47.71;98232.41;2107575;28;19916;-63
2021/12/10 03:30:34;;;;;;;;;;;;;;;19.32;47.64;98207.81;2107759;28;19912;-63
2021/12/10 03:31:35;;;;;;;;;;;;;;;19.32;47.70;98191.44;2098412;28;19927;-63
2021/12/10 03:32:36;;;;;;;;;;;;;;;19.31;47.62;98179.66;2098652;28;20010;-63
2021/12/10 03:33:38;;;;;;;;;;;;;;;19.30;47.70;98174.38;2098446;28;19912;-63
2021/12/10 03:34:40;;;;;;;;;;;;;;;19.30;47.69;98166.19;2098574;28;20007;-63
2021/12/10 03:35:45;;;;;;;;;;;;;;;19.30;47.71;98158.00;2107543;28;19934;-63
2021/12/10 03:36:48;;;;;;;;;;;;;;;19.27;47.79;98138.22;2107403;28;19912;-63
2021/12/10 03:37:49;;;;;;;;;;;;;;;19.27;47.75;98137.38;2107419;28;19943;-62
2021/12/10 03:38:49;;;;;;;;;;;;;;;19.26;47.79;98142.00;2107696;28;19962;-63
2021/12/10 03:39:50;;;;;;;;;;;;;;;19.28;47.82;98150.03;2107324;28;20299;-63
2021/12/10 03:40:51;;;;;;;;;;;;;;;19.27;47.76;98143.69;2107460;28;19912;-62
2021/12/10 03:41:52;;;;;;;;;;;;;;;19.27;47.79;98154.59;2107670;28;19974;-65
2021/12/10 03:42:58;;;;;;;;;;;;;;;19.26;47.79;98152.94;2107408;28;20337;-63
2021/12/10 03:43:58;;;;;;;;;;;;;;;19.27;47.84;98160.06;2107498;28;19919;-63
2021/12/10 03:44:59;;;;;;;;;;;;;;;19.26;47.79;98152.09;2107489;28;19918;-63
2021/12/10 03:46:00;;;;;;;;;;;;;;;19.28;47.75;98144.56;2107521;28;20389;-63
2021/12/10 03:47:02;;;;;;;;;;;;;;;19.27;47.79;98154.59;2098429;28;20275;-63
2021/12/10 03:48:06;;;;;;;;;;;;;;;19.28;47.95;98169.97;2098749;28;19912;-63
2021/12/10 03:49:07;;;;;;;;;;;;;;;19.28;47.82;98145.41;2107475;28;19912;-63
2021/12/10 03:50:09;;;;;;;;;;;;;;;19.27;47.72;98132.75;2107417;28;19912;-64
2021/12/10 03:51:11;;;;;;;;;;;;;;;19.27;47.82;98126.47;2107282;28;20000;-64
2021/12/10 03:52:11;;;;;;;;;;;;;;;19.25;47.80;98131.28;2107138;28;20384;-64
2021/12/10 03:53:13;;;;;;;;;;;;;;;19.25;47.69;98134.84;2107281;28;20313;-64
2021/12/10 03:54:16;;;;;;;;;;;;;;;19.24;47.92;98133.16;2106657;28;19912;-64
2021/12/10 03:55:18;;;;;;;;;;;;;;;19.23;47.94;98136.94;2106712;28;19912;-64
2021/12/10 03:56:20;;;;;;;;;;;;;;;19.23;47.93;98136.09;2106467;28;19912;-64
2021/12/10 03:57:21;;;;;;;;;;;;;;;19.23;47.94;98134.22;2106699;28;20337;-64
2021/12/10 03:58:21;;;;;;;;;;;;;;;19.23;47.90;98180.66;2107380;28;20417;-64
2021/12/10 03:59:23;;;;;;;;;;;;;;;19.24;47.88;98269.75;2098344;28;19946;-64
2021/12/10 04:00:25;;;;;;;;;;;;;;;19.25;47.84;98293.28;2085847;28;19993;-64
2021/12/10 04:01:28;;;;;;;;;;;;;;;19.27;47.89;98280.28;2090436;28;19917;-65
2021/12/10 04:02:29;;;;;;;;;;;;;;;19.26;47.85;98335.97;2098239;28;19912;-64
2021/12/10 04:03:30;;;;;;;;;;;;;;;19.26;47.88;98299.59;2098089;28;19920;-64
2021/12/10 04:04:34;;;;;;;;;;;;;;;19.24;47.85;98299.78;2099066;28;19909;-64
2021/12/10 04:05:35;;;;;;;;;;;;;;;19.25;47.81;98315.13;2098889;28;19971;-64
2021/12/10 04:06:35;;;;;;;;;;;;;;;19.24;47.82;98294.31;2105413;28;19991;-64
2021/12/10 04:07:36;;;;;;;;;;;;;;;19.25;47.82;98282.34;2107524;28;20378;-64
2021/12/10 04:08:36;;;;;;;;;;;;;;;19.24;47.84;98286.13;2107360;28;19912;-63
2021/12/10 04:09:37;;;;;;;;;;;;;;;19.23;47.94;98273.53;2107331;28;19920;-64
2021/12/10 04:10:40;;;;;;;;;;;;;;;19.23;47.83;98276.25;2107327;28;20418;-63
2021/12/10 04:11:41;;;;;;;;;;;;;;;19.23;47.86;98276.25;2107244;28;19923;-63
2021/12/10 04:12:41;;;;;;;;;;;;;;;19.23;47.94;98267.19;2107257;28;19912;-62
2021/12/10 04:13:44;;;;;;;;;;;;;;;19.21;47.95;98270.13;2107438;28;19950;-62
2021/12/10 04:14:46;;;;;;;;;;;;;;;19.21;47.96;98270.13;2107369;28;19923;-64
2021/12/10 04:15:47;;;;;;;;;;;;;;;19.23;47.90;98275.38;2107505;28;19999;-63
2021/12/10 04:16:54;;;;;;;;;;;;;;;19.23;47.99;98267.19;2098247;28;19916;-63
2021/12/10 04:17:56;;;;;;;;;;;;;;;19.21;48.03;98270.13;2082545;28;20326;-67
2021/12/10 04:18:58;;;;;;;;;;;;;;;19.21;47.99;98275.59;2090983;28;20566;-66
2021/12/10 04:19:59;;;;;;;;;;;;;;;19.20;47.95;98276.63;2089683;28;20543;-66
2021/12/10 04:21:00;;;;;;;;;;;;;;;19.21;48.07;98289.25;2095370;28;19907;-66
2021/12/10 04:22:01;;;;;;;;;;;;;;;19.20;48.05;98290.28;2090079;28;19916;-66
2021/12/10 04:23:03;;;;;;;;;;;;;;;19.20;47.96;98295.75;2086610;28;19916;-66
2021/12/10 04:24:04;;;;;;;;;;;;;;;19.20;47.90;98294.91;2091035;28;20075;-67
2021/12/10 04:25:06;;;;;;;;;;;;;;;19.20;48.04;98281.25;2078842;28;19917;-67
2021/12/10 04:26:08;;;;;;;;;;;;;;;19.19;48.00;98277.69;2081508;28;20039;-67
2021/12/10 04:27:10;;;;;;;;;;;;;;;19.19;48.13;98274.09;2090611;28;19924;-66
2021/12/10 04:28:15;;;;;;;;;;;;;;;19.18;47.94;98264.19;2090055;28;20450;-66
2021/12/10 04:29:19;;;;;;;;;;;;;;;19.17;48.05;98274.28;2092164;28;19912;-67
2021/12/10 04:30:20;;;;;;;;;;;;;;;19.18;48.20;98281.47;2090477;28;20460;-67
2021/12/10 04:31:21;;;;;;;;;;;;;;;19.17;48.07;98268.81;2089941;28;19983;-67
2021/12/10 04:32:21;;;;;;;;;;;;;;;19.17;48.14;98271.56;2083006;28;19971;-67
2021/12/10 04:33:25;;;;;;;;;;;;;;;19.19;48.04;98279.56;2081368;28;19942;-67
2021/12/10 04:34:25;;;;;;;;;;;;;;;19.19;48.07;98272.22;2082247;28;19961;-66
2021/12/10 04:35:26;;;;;;;;;;;;;;;19.17;48.15;98271.56;2082222;28;19922;-67
2021/12/10 04:36:26;;;;;;;;;;;;;;;19.16;47.99;98269.88;2084603;28;20365;-66
2021/12/10 04:37:27;;;;;;;;;;;;;;;19.17;48.16;98279.75;2085997;28;20069;-66
2021/12/10 04:38:28;;;;;;;;;;;;;;;19.16;48.15;98264.41;2091697;28;20168;-67
2021/12/10 04:39:29;;;;;;;;;;;;;;;19.16;48.15;98277.22;2081311;28;19939;-67
2021/12/10 04:40:30;;;;;;;;;;;;;;;19.16;48.19;98275.34;2082211;28;19916;-66
2021/12/10 04:41:31;;;;;;;;;;;;;;;19.17;48.24;98277.03;2074503;28;20443;-67
2021/12/10 04:42:31;;;;;;;;;;;;;;;19.17;48.14;98290.69;2089111;28;19917;-67
2021/12/10 04:43:34;;;;;;;;;;;;;;;19.17;48.24;98287.94;2091292;28;19951;-68
2021/12/10 04:44:34;;;;;;;;;;;;;;;19.17;48.27;98289.84;2091409;28;19913;-67
2021/12/10 04:45:34;;;;;;;;;;;;;;;19.18;48.22;98292.38;2092202;28;20043;-67
2021/12/10 04:46:35;;;;;;;;;;;;;;;19.16;48.21;98297.19;2092722;28;19908;-67
2021/12/10 04:47:35;;;;;;;;;;;;;;;19.16;48.23;98296.34;2088201;28;19913;-67
2021/12/10 04:49:02;;;;;;;;;;;;;;;19.14;48.18;98291.06;2091666;28;20103;-67
2021/12/10 04:50:04;;;;;;;;;;;;;;;19.16;48.26;98299.09;2089037;28;19908;-67
2021/12/10 04:51:04;;;;;;;;;;;;;;;19.15;48.26;98303.69;2093226;28;20659;-67
2021/12/10 04:52:05;;;;;;;;;;;;;;;19.15;48.32;98309.13;2092541;28;20447;-67
2021/12/10 04:53:07;;;;;;;;;;;;;;;19.14;48.32;98302.00;2093601;28;20756;-67
2021/12/10 04:54:08;;;;;;;;;;;;;;;19.14;48.33;98299.25;2094313;28;19923;-67
2021/12/10 04:55:10;;;;;;;;;;;;;;;19.14;48.25;98304.72;2100123;28;19959;-67
2021/12/10 04:56:10;;;;;;;;;;;;;;;19.14;48.35;98295.69;2092176;28;20373;-67
2021/12/10 04:57:10;;;;;;;;;;;;;;;19.13;48.27;98300.28;2092559;28;19916;-67
2021/12/10 04:58:11;;;;;;;;;;;;;;;19.13;48.30;98283.06;2102350;28;20011;-67
2021/12/10 04:59:15;;;;;;;;;;;;;;;19.14;48.37;98287.50;2088720;28;19908;-67
2021/12/10 05:00:26;;;;;;;;;;;;;;;19.13;48.43;98292.09;2088969;28;20033;-67
2021/12/10 05:01:27;;;;;;;;;;;;;;;19.13;48.32;98294.81;2092037;28;20361;-67
2021/12/10 05:02:28;;;;;;;;;;;;;;;19.12;48.38;98298.59;2090828;28;20437;-67
2021/12/10 05:03:28;;;;;;;;;;;;;;;19.14;48.47;98302.00;2084708;28;20629;-67
2021/12/10 05:04:29;;;;;;;;;;;;;;;19.13;48.33;98299.44;2083902;28;19916;-67
2021/12/10 05:05:29;;;;;;;;;;;;;;;19.13;48.33;98299.44;2094157;28;19990;-67
2021/12/10 05:06:30;;;;;;;;;;;;;;;19.13;48.42;98294.81;2092191;28;19916;-67
2021/12/10 05:07:34;;;;;;;;;;;;;;;19.13;48.41;98274.88;2093784;28;19951;-67
2021/12/10 05:08:36;;;;;;;;;;;;;;;19.11;48.51;98280.53;2092650;28;19916;-67
2021/12/10 05:09:37;;;;;;;;;;;;;;;19.11;48.42;98275.09;2092390;28;19919;-67
2021/12/10 05:10:38;;;;;;;;;;;;;;;19.10;48.40;98281.56;2093729;28;19916;-67
2021/12/10 05:11:39;;;;;;;;;;;;;;;19.12;48.43;98286.84;2092245;28;19927;-67
2021/12/10 05:12:40;;;;;;;;;;;;;;;19.11;48.34;98286.00;2093362;28;19922;-67
2021/12/10 05:13:42;;;;;;;;;;;;;;;19.09;48.54;98288.06;2082911;28;20432;-67
2021/12/10 05:14:42;;;;;;;;;;;;;;;19.10;48.43;98287.03;2084313;28;19964;-67
2021/12/10 05:15:44;;;;;;;;;;;;;;;19.09;48.42;98292.69;2092429;28;19913;-67
2021/12/10 05:16:45;;;;;;;;;;;;;;;19.10;48.51;98288.91;2093194;28;20677;-67
2021/12/10 05:17:48;;;;;;;;;;;;;;;19.10;48.45;98286.19;2092827;28;20060;-67
2021/12/10 05:18:55;;;;;;;;;;;;;;;19.10;48.46;98292.50;2093041;28;20949;-67
2021/12/10 05:19:56;;;;;;;;;;;;;;;19.09;48.42;98296.28;2090051;28;20401;-67
2021/12/10 05:20:56;;;;;;;;;;;;;;;19.10;48.42;98291.66;2091759;28;20339;-67
2021/12/10 05:22:01;;;;;;;;;;;;;;;19.09;48.52;98293.53;2093406;28;19991;-67
2021/12/10 05:23:01;;;;;;;;;;;;;;;19.08;48.40;98291.84;2094027;28;19915;-67
2021/12/10 05:24:02;;;;;;;;;;;;;;;19.06;48.50;98294.78;2092302;28;19955;-67
2021/12/10 05:25:03;;;;;;;;;;;;;;;19.08;48.55;98308.22;2092090;28;19922;-67
2021/12/10 05:26:04;;;;;;;;;;;;;;;19.07;48.45;98303.81;2092639;28;19965;-67
2021/12/10 05:27:04;;;;;;;;;;;;;;;19.07;48.61;98309.28;2085907;28;19922;-67
2021/12/10 05:28:04;;;;;;;;;;;;;;;19.05;48.55;98309.44;2090517;28;20638;-67
2021/12/10 05:29:06;;;;;;;;;;;;;;;19.06;48.59;98321.25;2092412;28;19923;-67
2021/12/10 05:30:08;;;;;;;;;;;;;;;19.05;48.53;98314.91;2093539;28;19915;-67
2021/12/10 05:31:08;;;;;;;;;;;;;;;19.06;48.50;98321.25;2092329;28;20591;-67
2021/12/10 05:32:10;;;;;;;;;;;;;;;19.06;48.56;98318.50;2093727;28;19984;-67
2021/12/10 05:33:16;;;;;;;;;;;;;;;19.05;48.52;98319.53;2092498;28;19931;-67
2021/12/10 05:34:17;;;;;;;;;;;;;;;19.05;48.52;98314.06;2092533;28;20294;-67